Time;durP1;ratioP1;P1;durP2;ratioP2;P2;SDS_P1;SDS_P2;PMS_P1;PMS_P2;Temp;Humidity;BMP_temperature;BMP_pressure;BME280_temperature;BME280_humidity;BME280_pressure;Samples;Min_cycle;Max_cycle;Signal;HPM_P1;HPM_P2
2021/11/27 00:00:39;;;;;;;;;;;3.10;99.90;;;;;;5095455;28;19998;-80
2021/11/27 00:03:06;;;;;;;;;;;3.20;99.90;;;;;;5090994;28;19924;-81
2021/11/27 00:05:34;;;;;;;;;;;3.20;99.90;;;;;;5079897;28;20386;-80
2021/11/27 00:08:01;;;;;;;;;;;3.10;99.90;;;;;;5079543;28;20026;-80
2021/11/27 00:10:30;;;;;;;;;;;3.30;99.90;;;;;;5077861;28;20015;-79
2021/11/27 00:12:57;;;;;;;;;;;3.30;99.90;;;;;;5077193;28;20470;-78
2021/11/27 00:15:24;;;;;;;;;;;3.30;99.90;;;;;;5077206;28;19924;-80
2021/11/27 00:17:51;;;;;;;;;;;3.30;99.90;;;;;;5080973;28;19936;-79
2021/11/27 00:20:20;;;;;;;;;;;3.30;99.90;;;;;;5090111;28;20015;-80
2021/11/27 00:22:46;;;;;;;;;;;3.30;99.90;;;;;;5092621;28;19924;-79
2021/11/27 00:25:14;;;;;;;;;;;3.30;99.90;;;;;;5085167;28;19931;-80
2021/11/27 00:27:42;;;;;;;;;;;3.30;99.90;;;;;;5081834;28;20474;-80
2021/11/27 00:30:10;;;;;;;;;;;3.30;99.90;;;;;;5090102;28;20015;-79
2021/11/27 00:32:37;;;;;;;;;;;3.30;99.90;;;;;;5089015;28;19935;-79
2021/11/27 00:35:04;;;;;;;;;;;3.30;99.90;;;;;;5089302;28;19971;-80
2021/11/27 00:37:31;;;;;;;;;;;3.30;99.90;;;;;;5082595;28;19979;-80
2021/11/27 00:39:58;;;;;;;;;;;3.60;99.90;;;;;;5084004;28;19964;-78
2021/11/27 00:42:24;;;;;;;;;;;3.30;99.90;;;;;;5085423;28;19924;-80
2021/11/27 00:44:53;;;;;;;;;;;3.30;99.90;;;;;;5086881;28;20003;-78
2021/11/27 00:47:19;;;;;;;;;;;3.20;99.90;;;;;;5086118;28;20455;-79
2021/11/27 00:49:48;;;;;;;;;;;3.50;99.90;;;;;;5086258;28;20007;-78
2021/11/27 00:52:15;;;;;;;;;;;3.30;99.90;;;;;;5086281;28;19924;-78
2021/11/27 00:54:42;;;;;;;;;;;3.30;99.90;;;;;;5089725;28;19924;-78
2021/11/27 00:57:08;;;;;;;;;;;3.30;99.90;;;;;;5090844;28;19924;-79
2021/11/27 00:59:35;;;;;;;;;;;3.30;99.90;;;;;;5090844;28;19931;-79
2021/11/27 01:02:03;;;;;;;;;;;3.20;99.90;;;;;;5091119;28;19974;-78
2021/11/27 01:04:30;;;;;;;;;;;3.90;99.90;;;;;;5088723;28;19971;-77
2021/11/27 01:06:57;;;;;;;;;;;3.20;99.90;;;;;;5089794;28;19925;-78
2021/11/27 01:09:24;;;;;;;;;;;3.20;99.90;;;;;;5090029;28;20300;-78
2021/11/27 01:11:53;;;;;;;;;;;3.10;99.90;;;;;;5090537;28;19931;-78
2021/11/27 01:14:21;;;;;;;;;;;3.10;99.90;;;;;;5088416;28;20394;-78
2021/11/27 01:16:50;;;;;;;;;;;3.00;99.90;;;;;;5091420;28;20266;-79
2021/11/27 01:19:19;;;;;;;;;;;3.00;99.90;;;;;;5091686;28;19931;-78
2021/11/27 01:21:47;;;;;;;;;;;2.90;99.90;;;;;;5081403;28;19925;-79
2021/11/27 01:24:15;;;;;;;;;;;2.90;99.90;;;;;;5080080;28;20477;-80
2021/11/27 01:26:42;;;;;;;;;;;2.90;99.90;;;;;;5079660;28;20350;-80
2021/11/27 01:29:09;;;;;;;;;;;2.80;99.90;;;;;;5080011;28;19971;-80
2021/11/27 01:31:36;;;;;;;;;;;2.70;99.90;;;;;;5079503;28;19925;-80
2021/11/27 01:34:03;;;;;;;;;;;2.70;99.90;;;;;;5080041;28;20011;-81
2021/11/27 01:36:32;;;;;;;;;;;2.70;99.90;;;;;;5083003;28;19974;-80
2021/11/27 01:38:58;;;;;;;;;;;2.60;99.90;;;;;;5086978;28;20375;-80
2021/11/27 01:41:25;;;;;;;;;;;2.60;99.90;;;;;;5086092;28;19963;-78
2021/11/27 01:43:52;;;;;;;;;;;2.60;99.90;;;;;;5084469;28;20387;-77
2021/11/27 01:46:19;;;;;;;;;;;2.30;99.90;;;;;;5081017;28;19992;-80
2021/11/27 01:48:46;;;;;;;;;;;3.50;99.90;;;;;;5083271;28;19931;-80
2021/11/27 01:51:14;;;;;;;;;;;2.50;99.90;;;;;;5081448;28;19963;-79
2021/11/27 01:53:44;;;;;;;;;;;2.70;99.90;;;;;;5080827;28;19956;-80
2021/11/27 01:56:11;;;;;;;;;;;2.50;99.90;;;;;;5080333;28;20018;-78
2021/11/27 01:58:39;;;;;;;;;;;2.30;99.90;;;;;;5079947;28;19959;-79
2021/11/27 02:01:07;;;;;;;;;;;2.40;99.90;;;;;;5078629;28;19996;-79
2021/11/27 02:03:34;;;;;;;;;;;2.40;99.90;;;;;;5078456;28;19928;-79
2021/11/27 02:06:03;;;;;;;;;;;2.40;99.90;;;;;;5078082;28;20011;-80
2021/11/27 02:08:30;;;;;;;;;;;2.50;99.90;;;;;;5078649;28;20020;-80
2021/11/27 02:10:59;;;;;;;;;;;2.40;99.90;;;;;;5079146;28;19967;-80
2021/11/27 02:13:26;;;;;;;;;;;2.30;99.90;;;;;;5089909;28;19924;-79
2021/11/27 02:15:53;;;;;;;;;;;2.30;99.90;;;;;;5095845;28;19987;-80
2021/11/27 02:18:19;;;;;;;;;;;2.40;99.90;;;;;;5094807;28;19960;-79
2021/11/27 02:20:55;;;;;;;;;;;2.20;99.90;;;;;;5083047;28;19952;-80
2021/11/27 02:23:22;;;;;;;;;;;2.20;99.90;;;;;;5079758;28;19960;-80
2021/11/27 02:25:49;;;;;;;;;;;2.20;99.90;;;;;;5079433;28;19931;-80
2021/11/27 02:28:16;;;;;;;;;;;2.20;99.90;;;;;;5079630;28;20019;-80
2021/11/27 02:30:43;;;;;;;;;;;2.20;99.90;;;;;;5079444;28;19924;-80
2021/11/27 02:33:09;;;;;;;;;;;2.20;99.90;;;;;;5078899;28;19925;-79
2021/11/27 02:35:36;;;;;;;;;;;2.20;99.90;;;;;;5084975;28;19924;-79
2021/11/27 02:38:04;;;;;;;;;;;2.20;99.90;;;;;;5089157;28;19955;-79
2021/11/27 02:40:32;;;;;;;;;;;2.00;99.90;;;;;;5085184;28;19925;-80
2021/11/27 02:42:59;;;;;;;;;;;2.40;99.90;;;;;;5080706;28;19925;-80
2021/11/27 02:45:25;;;;;;;;;;;2.20;99.90;;;;;;5089829;28;19997;-78
2021/11/27 02:47:52;;;;;;;;;;;2.10;99.90;;;;;;5091482;28;19972;-78
2021/11/27 02:50:19;;;;;;;;;;;2.10;99.90;;;;;;5090624;28;19925;-78
2021/11/27 02:52:46;;;;;;;;;;;2.00;99.90;;;;;;5089268;28;19956;-79
2021/11/27 02:55:13;;;;;;;;;;;2.00;99.90;;;;;;5088459;28;19924;-78
2021/11/27 02:57:40;;;;;;;;;;;2.00;99.90;;;;;;5084772;28;19924;-79
2021/11/27 03:00:09;;;;;;;;;;;2.10;99.90;;;;;;5085091;28;19970;-79
2021/11/27 03:02:35;;;;;;;;;;;2.10;99.90;;;;;;5086950;28;19987;-79
2021/11/27 03:05:02;;;;;;;;;;;2.10;99.90;;;;;;5086565;28;19932;-79
2021/11/27 03:07:29;;;;;;;;;;;2.20;99.90;;;;;;5089747;28;20419;-78
2021/11/27 03:09:55;;;;;;;;;;;2.20;99.90;;;;;;5090845;28;19951;-78
2021/11/27 03:12:23;;;;;;;;;;;2.10;99.90;;;;;;5087838;28;19924;-79
2021/11/27 03:14:50;;;;;;;;;;;1.70;99.90;;;;;;5081181;28;20019;-79
2021/11/27 03:17:17;;;;;;;;;;;1.90;99.90;;;;;;5081267;28;20144;-78
2021/11/27 03:19:44;;;;;;;;;;;1.90;99.90;;;;;;5080973;28;20022;-78
2021/11/27 03:22:11;;;;;;;;;;;1.90;99.90;;;;;;5079295;28;20118;-80
2021/11/27 03:24:39;;;;;;;;;;;1.80;99.90;;;;;;5076603;28;20007;-79
2021/11/27 03:27:06;;;;;;;;;;;1.80;99.90;;;;;;5076688;28;19943;-79
2021/11/27 03:29:34;;;;;;;;;;;1.80;99.90;;;;;;5079667;28;19999;-79
2021/11/27 03:32:04;;;;;;;;;;;1.80;99.90;;;;;;5077048;28;19924;-79
2021/11/27 03:34:30;;;;;;;;;;;1.80;99.90;;;;;;5078993;28;19983;-79
2021/11/27 03:36:58;;;;;;;;;;;1.80;99.90;;;;;;5085505;28;19951;-78
2021/11/27 03:39:24;;;;;;;;;;;1.80;99.90;;;;;;5086721;28;19924;-78
2021/11/27 03:41:51;;;;;;;;;;;1.80;99.90;;;;;;5080119;28;20007;-78
2021/11/27 03:44:18;;;;;;;;;;;1.80;99.90;;;;;;5077781;28;20023;-80
2021/11/27 03:46:46;;;;;;;;;;;1.80;99.90;;;;;;5076896;28;20019;-79
2021/11/27 03:49:13;;;;;;;;;;;1.80;99.90;;;;;;5076878;28;19931;-79
2021/11/27 03:51:40;;;;;;;;;;;1.70;99.90;;;;;;5076277;28;19925;-79
2021/11/27 03:54:07;;;;;;;;;;;1.50;99.90;;;;;;5076175;28;20027;-79
2021/11/27 03:56:33;;;;;;;;;;;1.70;99.90;;;;;;5076909;28;19991;-78
2021/11/27 03:59:01;;;;;;;;;;;1.70;99.90;;;;;;5087473;28;19960;-78
2021/11/27 04:01:28;;;;;;;;;;;1.80;99.90;;;;;;5088906;28;19924;-78
2021/11/27 04:03:57;;;;;;;;;;;1.70;99.90;;;;;;5076565;28;19935;-80
2021/11/27 04:06:24;;;;;;;;;;;1.70;99.90;;;;;;5076300;28;19931;-79
2021/11/27 04:08:54;;;;;;;;;;;1.70;99.90;;;;;;5075643;28;20023;-79
2021/11/27 04:11:20;;;;;;;;;;;1.70;99.90;;;;;;5076005;28;19924;-79
2021/11/27 04:13:47;;;;;;;;;;;1.70;99.90;;;;;;5076837;28;19931;-79
2021/11/27 04:16:14;;;;;;;;;;;1.80;99.90;;;;;;5078701;28;20316;-77
2021/11/27 04:18:40;;;;;;;;;;;1.80;99.90;;;;;;5085509;28;20006;-77
2021/11/27 04:21:08;;;;;;;;;;;1.80;99.90;;;;;;5087419;28;19959;-78
2021/11/27 04:23:35;;;;;;;;;;;1.80;99.90;;;;;;5088665;28;19952;-79
2021/11/27 04:26:02;;;;;;;;;;;1.80;99.90;;;;;;5089578;28;20382;-78
2021/11/27 04:28:28;;;;;;;;;;;1.80;99.90;;;;;;5079978;28;20430;-79
2021/11/27 04:30:55;;;;;;;;;;;1.90;99.90;;;;;;5077611;28;19925;-79
2021/11/27 04:33:22;;;;;;;;;;;1.90;99.90;;;;;;5076580;28;19960;-79
2021/11/27 04:35:49;;;;;;;;;;;1.80;99.90;;;;;;5076578;28;19939;-79
2021/11/27 04:38:17;;;;;;;;;;;1.90;99.90;;;;;;5080245;28;19928;-78
2021/11/27 04:40:43;;;;;;;;;;;1.90;99.90;;;;;;5086034;28;20286;-79
2021/11/27 04:43:10;;;;;;;;;;;1.90;99.90;;;;;;5076940;28;20268;-79
2021/11/27 04:45:37;;;;;;;;;;;2.10;99.90;;;;;;5076848;28;20305;-79
2021/11/27 04:48:04;;;;;;;;;;;1.90;99.90;;;;;;5077610;28;19931;-79
2021/11/27 04:50:31;;;;;;;;;;;1.90;99.90;;;;;;5076638;28;20011;-80
2021/11/27 04:52:58;;;;;;;;;;;1.90;99.90;;;;;;5075774;28;19924;-79
2021/11/27 04:55:26;;;;;;;;;;;1.80;99.90;;;;;;5076076;28;20015;-79
2021/11/27 04:57:53;;;;;;;;;;;1.90;99.90;;;;;;5076614;28;20443;-79
2021/11/27 05:00:21;;;;;;;;;;;1.90;99.90;;;;;;5075695;28;19931;-79
2021/11/27 05:02:47;;;;;;;;;;;2.00;99.90;;;;;;5075948;28;19930;-80
2021/11/27 05:05:14;;;;;;;;;;;2.00;99.90;;;;;;5076167;28;19952;-79
2021/11/27 05:07:41;;;;;;;;;;;2.10;99.90;;;;;;5076062;28;19931;-79
2021/11/27 05:10:08;;;;;;;;;;;2.10;99.90;;;;;;5076530;28;19978;-79
2021/11/27 05:12:36;;;;;;;;;;;2.00;99.90;;;;;;5076024;28;19924;-79
2021/11/27 05:15:03;;;;;;;;;;;2.10;99.90;;;;;;5076260;28;20023;-79
2021/11/27 05:17:30;;;;;;;;;;;2.00;99.90;;;;;;5076288;28;20015;-79
2021/11/27 05:19:56;;;;;;;;;;;2.00;99.90;;;;;;5076405;28;19999;-79
2021/11/27 05:22:23;;;;;;;;;;;2.10;99.90;;;;;;5084182;28;19932;-78
2021/11/27 05:24:49;;;;;;;;;;;2.10;99.90;;;;;;5088460;28;20045;-78
2021/11/27 05:27:17;;;;;;;;;;;1.90;99.90;;;;;;5083300;28;19929;-79
2021/11/27 05:29:45;;;;;;;;;;;2.00;99.90;;;;;;5085258;28;20010;-79
2021/11/27 05:32:21;;;;;;;;;;;2.10;99.90;;;;;;5079770;28;19925;-79
2021/11/27 05:34:48;;;;;;;;;;;1.60;99.90;;;;;;5085155;28;19924;-79
2021/11/27 05:37:16;;;;;;;;;;;2.10;99.90;;;;;;5086736;28;20035;-79
2021/11/27 05:39:43;;;;;;;;;;;2.10;99.90;;;;;;5084411;28;19931;-79
2021/11/27 05:42:10;;;;;;;;;;;1.90;99.90;;;;;;5083875;28;19967;-78
2021/11/27 05:44:37;;;;;;;;;;;2.10;99.90;;;;;;5085198;28;20024;-79
2021/11/27 05:47:05;;;;;;;;;;;1.90;99.90;;;;;;5087136;28;19996;-78
2021/11/27 05:49:32;;;;;;;;;;;2.00;99.90;;;;;;5087756;28;20019;-77
2021/11/27 05:51:59;;;;;;;;;;;2.00;99.90;;;;;;5082545;28;20019;-79
2021/11/27 05:54:25;;;;;;;;;;;2.20;99.90;;;;;;5079001;28;20501;-79
2021/11/27 05:56:52;;;;;;;;;;;2.00;99.90;;;;;;5079277;28;19924;-79
2021/11/27 05:59:19;;;;;;;;;;;2.10;99.90;;;;;;5079262;28;20023;-79
2021/11/27 06:01:45;;;;;;;;;;;2.10;99.90;;;;;;5081379;28;20019;-79
2021/11/27 06:04:13;;;;;;;;;;;2.00;99.90;;;;;;5080484;28;19925;-79
2021/11/27 06:06:40;;;;;;;;;;;2.00;99.90;;;;;;5079901;28;19924;-79
2021/11/27 06:09:06;;;;;;;;;;;1.90;99.90;;;;;;5089582;28;19964;-79
2021/11/27 06:11:33;;;;;;;;;;;2.00;99.90;;;;;;5081708;28;19924;-80
2021/11/27 06:14:00;;;;;;;;;;;2.00;99.90;;;;;;5080093;28;19931;-79
2021/11/27 06:16:26;;;;;;;;;;;2.00;99.90;;;;;;5079801;28;19928;-80
2021/11/27 06:18:53;;;;;;;;;;;2.00;99.90;;;;;;5078864;28;19979;-79
2021/11/27 06:21:21;;;;;;;;;;;2.00;99.90;;;;;;5079775;28;19987;-80
2021/11/27 06:23:48;;;;;;;;;;;2.00;99.90;;;;;;5086097;28;20307;-78
2021/11/27 06:26:15;;;;;;;;;;;1.90;99.90;;;;;;5088552;28;20019;-78
2021/11/27 06:28:42;;;;;;;;;;;1.90;99.90;;;;;;5090676;28;19962;-80
2021/11/27 06:31:08;;;;;;;;;;;2.00;99.90;;;;;;5082400;28;19925;-80
2021/11/27 06:33:35;;;;;;;;;;;2.00;99.90;;;;;;5081953;28;19925;-81
2021/11/27 06:36:01;;;;;;;;;;;2.30;99.90;;;;;;5078853;28;20015;-79
2021/11/27 06:38:29;;;;;;;;;;;2.00;99.90;;;;;;5076412;28;19963;-79
2021/11/27 06:40:56;;;;;;;;;;;1.80;99.90;;;;;;5076409;28;19959;-79
2021/11/27 06:43:23;;;;;;;;;;;1.90;99.90;;;;;;5076883;28;19928;-80
2021/11/27 06:45:49;;;;;;;;;;;2.30;99.90;;;;;;5077111;28;19925;-79
2021/11/27 06:48:16;;;;;;;;;;;2.40;99.90;;;;;;5086275;28;19932;-79
2021/11/27 06:50:43;;;;;;;;;;;2.00;99.90;;;;;;5091010;28;19972;-79
2021/11/27 06:53:10;;;;;;;;;;;2.00;99.90;;;;;;5087946;28;19984;-80
2021/11/27 06:55:39;;;;;;;;;;;1.90;99.90;;;;;;5077747;28;20322;-78
2021/11/27 06:58:05;;;;;;;;;;;2.10;99.90;;;;;;5078024;28;19959;-81
2021/11/27 07:00:32;;;;;;;;;;;2.00;99.90;;;;;;5076922;28;20012;-78
2021/11/27 07:02:59;;;;;;;;;;;2.00;99.90;;;;;;5077239;28;19987;-80
2021/11/27 07:05:25;;;;;;;;;;;2.00;99.90;;;;;;5077153;28;19925;-79
2021/11/27 07:07:52;;;;;;;;;;;2.00;99.90;;;;;;5077524;28;20024;-80
2021/11/27 07:10:19;;;;;;;;;;;2.00;99.90;;;;;;5077383;28;20018;-80
2021/11/27 07:12:47;;;;;;;;;;;2.10;99.90;;;;;;5091089;28;19951;-79
2021/11/27 07:15:13;;;;;;;;;;;2.10;99.90;;;;;;5095013;28;19932;-79
2021/11/27 07:17:40;;;;;;;;;;;2.10;99.90;;;;;;5089212;28;20011;-77
2021/11/27 07:20:08;;;;;;;;;;;2.10;99.90;;;;;;5088664;28;19974;-79
2021/11/27 07:22:35;;;;;;;;;;;2.20;99.90;;;;;;5091028;28;19924;-78
2021/11/27 07:25:01;;;;;;;;;;;2.40;99.90;;;;;;5089580;28;19925;-79
2021/11/27 07:27:28;;;;;;;;;;;2.20;99.90;;;;;;5088307;28;19959;-79
2021/11/27 07:29:56;;;;;;;;;;;2.20;99.90;;;;;;5084460;28;19991;-79
2021/11/27 07:32:23;;;;;;;;;;;2.30;99.90;;;;;;5078804;28;19952;-80
2021/11/27 07:34:49;;;;;;;;;;;2.30;99.90;;;;;;5080644;28;20019;-79
2021/11/27 07:37:16;;;;;;;;;;;2.30;99.90;;;;;;5088121;28;19952;-79
2021/11/27 07:39:43;;;;;;;;;;;2.40;99.90;;;;;;5082946;28;19983;-78
2021/11/27 07:42:09;;;;;;;;;;;2.40;99.90;;;;;;5083672;28;19989;-77
2021/11/27 07:44:36;;;;;;;;;;;2.40;99.90;;;;;;5087132;28;19924;-79
2021/11/27 07:47:04;;;;;;;;;;;2.50;99.90;;;;;;5086827;28;19924;-79
2021/11/27 07:49:31;;;;;;;;;;;2.60;99.90;;;;;;5077818;28;19959;-79
2021/11/27 07:51:58;;;;;;;;;;;2.70;99.90;;;;;;5077523;28;19995;-78
2021/11/27 07:54:24;;;;;;;;;;;2.60;99.90;;;;;;5076764;28;19930;-79
2021/11/27 07:56:52;;;;;;;;;;;2.70;99.90;;;;;;5080190;28;19931;-80
2021/11/27 07:59:19;;;;;;;;;;;3.10;99.90;;;;;;5087397;28;19942;-78
2021/11/27 08:01:46;;;;;;;;;;;2.90;99.90;;;;;;5085127;28;20019;-79
2021/11/27 08:04:15;;;;;;;;;;;2.80;99.90;;;;;;5078500;28;20031;-79
2021/11/27 08:06:42;;;;;;;;;;;2.90;99.90;;;;;;5087871;28;20302;-78
2021/11/27 08:09:09;;;;;;;;;;;2.90;99.90;;;;;;5088460;28;19966;-78
2021/11/27 08:11:35;;;;;;;;;;;3.10;99.90;;;;;;5088239;28;19978;-78
2021/11/27 08:14:03;;;;;;;;;;;3.20;99.90;;;;;;5088117;28;19952;-78
2021/11/27 08:16:30;;;;;;;;;;;3.20;99.90;;;;;;5088586;28;19924;-79
2021/11/27 08:18:57;;;;;;;;;;;3.30;99.90;;;;;;5090109;28;19994;-80
2021/11/27 08:21:25;;;;;;;;;;;3.20;99.90;;;;;;5079723;28;20015;-80
2021/11/27 08:23:52;;;;;;;;;;;3.30;99.90;;;;;;5076767;28;19924;-80
2021/11/27 08:26:19;;;;;;;;;;;3.30;99.90;;;;;;5075433;28;20019;-80
2021/11/27 08:28:45;;;;;;;;;;;3.40;99.90;;;;;;5075292;28;19946;-80
2021/11/27 08:31:12;;;;;;;;;;;3.40;99.90;;;;;;5075908;28;20438;-80
2021/11/27 08:33:39;;;;;;;;;;;3.40;99.90;;;;;;5075847;28;20434;-79
2021/11/27 08:36:05;;;;;;;;;;;3.50;99.90;;;;;;5076644;28;19968;-80
2021/11/27 08:38:33;;;;;;;;;;;3.60;99.90;;;;;;5076139;28;20015;-80
2021/11/27 08:41:00;;;;;;;;;;;3.60;99.90;;;;;;5090235;28;19924;-80
2021/11/27 08:43:27;;;;;;;;;;;3.70;99.90;;;;;;5082469;28;20028;-79
2021/11/27 08:45:53;;;;;;;;;;;3.70;99.90;;;;;;5079671;28;20360;-81
2021/11/27 08:48:20;;;;;;;;;;;3.80;99.90;;;;;;5080607;28;19968;-79
2021/11/27 08:50:47;;;;;;;;;;;3.80;99.90;;;;;;5086441;28;20000;-78
2021/11/27 08:53:14;;;;;;;;;;;3.80;99.90;;;;;;5087717;28;19992;-79
2021/11/27 08:55:42;;;;;;;;;;;3.80;99.90;;;;;;5083090;28;19967;-80
2021/11/27 08:58:11;;;;;;;;;;;3.90;99.90;;;;;;5081009;28;19939;-80
2021/11/27 09:00:38;;;;;;;;;;;3.90;99.90;;;;;;5088829;28;19936;-80
2021/11/27 09:03:05;;;;;;;;;;;3.90;99.90;;;;;;5086454;28;19983;-80
2021/11/27 09:05:31;;;;;;;;;;;4.30;99.90;;;;;;5084795;28;19931;-79
2021/11/27 09:07:58;;;;;;;;;;;3.80;99.90;;;;;;5085284;28;19991;-80
2021/11/27 09:10:25;;;;;;;;;;;3.80;99.90;;;;;;5082973;28;20011;-79
2021/11/27 09:12:53;;;;;;;;;;;3.80;99.90;;;;;;5083227;28;20008;-79
2021/11/27 09:15:19;;;;;;;;;;;3.90;99.90;;;;;;5082721;28;19954;-79
2021/11/27 09:17:46;;;;;;;;;;;3.90;99.90;;;;;;5082108;28;19948;-79
2021/11/27 09:20:13;;;;;;;;;;;3.90;99.90;;;;;;5082092;28;19924;-80
2021/11/27 09:22:40;;;;;;;;;;;3.90;99.90;;;;;;5084557;28;19962;-78
2021/11/27 09:25:07;;;;;;;;;;;4.00;99.90;;;;;;5092954;28;19924;-78
2021/11/27 09:27:34;;;;;;;;;;;3.80;99.90;;;;;;5092197;28;19924;-78
2021/11/27 09:30:02;;;;;;;;;;;3.80;99.90;;;;;;5093445;28;19960;-78
2021/11/27 09:32:30;;;;;;;;;;;3.80;99.90;;;;;;5090513;28;19959;-79
2021/11/27 09:34:57;;;;;;;;;;;3.80;99.90;;;;;;5081582;28;20023;-79
2021/11/27 09:37:24;;;;;;;;;;;3.60;99.90;;;;;;5088163;28;19967;-79
2021/11/27 09:39:51;;;;;;;;;;;3.80;99.90;;;;;;5091444;28;20355;-79
2021/11/27 09:42:19;;;;;;;;;;;3.80;99.90;;;;;;5085487;28;19932;-79
2021/11/27 09:44:47;;;;;;;;;;;3.80;99.90;;;;;;5079071;28;20019;-79
2021/11/27 09:47:15;;;;;;;;;;;3.90;99.90;;;;;;5080787;28;20331;-79
2021/11/27 09:49:43;;;;;;;;;;;4.00;99.90;;;;;;5082937;28;19924;-79
2021/11/27 09:52:09;;;;;;;;;;;3.90;99.90;;;;;;5079190;28;20027;-80
2021/11/27 09:54:36;;;;;;;;;;;4.00;99.90;;;;;;5081844;28;19989;-80
2021/11/27 09:57:06;;;;;;;;;;;3.90;99.90;;;;;;5084815;28;19924;-81
2021/11/27 09:59:33;;;;;;;;;;;4.20;99.90;;;;;;5083665;28;20346;-80
2021/11/27 10:02:00;;;;;;;;;;;4.10;99.90;;;;;;5088196;28;19925;-80
2021/11/27 10:04:31;;;;;;;;;;;4.10;99.90;;;;;;5082595;28;20433;-81
2021/11/27 10:06:58;;;;;;;;;;;4.20;99.90;;;;;;5088083;28;20367;-81
2021/11/27 10:09:25;;;;;;;;;;;4.10;99.90;;;;;;5082681;28;19995;-82
2021/11/27 10:11:52;;;;;;;;;;;4.20;99.90;;;;;;5084209;28;19928;-81
2021/11/27 10:14:20;;;;;;;;;;;4.30;99.90;;;;;;5082600;28;19964;-79
2021/11/27 10:17:06;;;;;;;;;;;4.30;99.90;;;;;;5082036;28;19967;-81
2021/11/27 10:19:51;;;;;;;;;;;4.30;99.90;;;;;;5082822;28;19975;-81
2021/11/27 10:22:19;;;;;;;;;;;4.40;99.90;;;;;;5082145;28;19994;-80
2021/11/27 10:24:47;;;;;;;;;;;4.50;99.90;;;;;;5081361;28;19975;-78
2021/11/27 10:27:21;;;;;;;;;;;4.50;99.90;;;;;;5082344;28;19925;-81
2021/11/27 10:29:58;;;;;;;;;;;4.50;99.90;;;;;;5084579;28;20429;-81
2021/11/27 10:32:30;;;;;;;;;;;4.60;99.90;;;;;;5086245;28;19964;-82
2021/11/27 10:34:58;;;;;;;;;;;4.60;99.90;;;;;;5088549;28;19928;-81
2021/11/27 10:37:26;;;;;;;;;;;4.50;99.90;;;;;;5095692;28;19980;-81
2021/11/27 10:39:56;;;;;;;;;;;4.60;99.90;;;;;;5094344;28;19970;-82
2021/11/27 10:42:23;;;;;;;;;;;4.60;99.90;;;;;;5097166;28;19925;-80
2021/11/27 10:44:51;;;;;;;;;;;4.60;99.90;;;;;;5094575;28;20076;-80
2021/11/27 10:47:19;;;;;;;;;;;4.60;99.90;;;;;;5087526;28;19924;-82
2021/11/27 10:49:47;;;;;;;;;;;4.60;99.90;;;;;;5083286;28;19963;-82
2021/11/27 10:52:16;;;;;;;;;;;4.70;99.90;;;;;;5082841;28;20379;-82
2021/11/27 10:54:59;;;;;;;;;;;4.70;99.90;;;;;;5084119;28;19990;-82
2021/11/27 10:57:27;;;;;;;;;;;4.70;99.90;;;;;;5083466;28;19970;-82
2021/11/27 10:59:54;;;;;;;;;;;4.60;99.90;;;;;;5083810;28;19959;-81
2021/11/27 11:02:22;;;;;;;;;;;4.60;99.90;;;;;;5081759;28;19925;-81
2021/11/27 11:04:59;;;;;;;;;;;4.60;99.90;;;;;;5081168;28;20023;-82
2021/11/27 11:07:28;;;;;;;;;;;4.70;99.90;;;;;;5085271;28;19924;-82
2021/11/27 11:10:19;;;;;;;;;;;4.70;99.90;;;;;;5087008;28;19931;-80
2021/11/27 11:12:48;;;;;;;;;;;4.70;99.90;;;;;;5078976;28;20285;-81
2021/11/27 11:15:17;;;;;;;;;;;4.70;99.90;;;;;;5082262;28;20019;-80
2021/11/27 11:17:44;;;;;;;;;;;4.10;99.90;;;;;;5079658;28;19924;-81
2021/11/27 11:20:19;;;;;;;;;;;4.40;99.90;;;;;;5081783;28;19971;-81
2021/11/27 11:23:07;;;;;;;;;;;4.60;99.90;;;;;;5080130;28;19924;-82
2021/11/27 11:25:35;;;;;;;;;;;4.50;99.90;;;;;;5080467;28;19930;-82
2021/11/27 11:28:16;;;;;;;;;;;4.50;99.90;;;;;;5084186;28;19925;-82
2021/11/27 11:30:45;;;;;;;;;;;4.50;99.90;;;;;;5085386;28;19952;-80
2021/11/27 11:33:12;;;;;;;;;;;4.50;99.90;;;;;;5095878;28;19908;-78
2021/11/27 11:35:39;;;;;;;;;;;4.50;99.90;;;;;;5098421;28;19925;-82
2021/11/27 11:38:12;;;;;;;;;;;4.50;99.90;;;;;;5091281;28;19931;-82
2021/11/27 11:40:38;;;;;;;;;;;4.50;99.90;;;;;;5087456;28;20343;-81
2021/11/27 11:43:05;;;;;;;;;;;4.80;99.90;;;;;;5089637;28;19924;-81
2021/11/27 11:45:32;;;;;;;;;;;4.50;99.90;;;;;;5088979;28;19963;-82
2021/11/27 11:47:59;;;;;;;;;;;4.50;99.90;;;;;;5086772;28;19925;-82
2021/11/27 11:50:27;;;;;;;;;;;4.50;99.90;;;;;;5085515;28;19931;-80
2021/11/27 11:53:00;;;;;;;;;;;4.40;99.90;;;;;;5092502;28;19936;-80
2021/11/27 11:55:28;;;;;;;;;;;4.50;99.90;;;;;;5094417;28;19912;-81
2021/11/27 11:57:56;;;;;;;;;;;4.40;99.90;;;;;;5091853;28;19924;-79
2021/11/27 12:00:24;;;;;;;;;;;4.40;99.90;;;;;;5091684;28;19924;-79
2021/11/27 12:02:50;;;;;;;;;;;4.40;99.90;;;;;;5089477;28;20390;-81
2021/11/27 12:05:17;;;;;;;;;;;4.40;99.90;;;;;;5081694;28;20417;-82
2021/11/27 12:07:51;;;;;;;;;;;4.50;99.90;;;;;;5088744;28;19960;-80
2021/11/27 12:10:19;;;;;;;;;;;4.50;99.90;;;;;;5082759;28;19924;-81
2021/11/27 12:13:07;;;;;;;;;;;4.50;99.90;;;;;;5080457;28;20030;-81
2021/11/27 12:15:35;;;;;;;;;;;4.50;99.90;;;;;;5081944;28;19924;-81
2021/11/27 12:18:25;;;;;;;;;;;4.60;99.90;;;;;;5086303;28;19924;-80
2021/11/27 12:20:53;;;;;;;;;;;4.60;99.90;;;;;;5056779;28;19963;-79
2021/11/27 12:23:38;;;;;;;;;;;4.60;99.90;;;;;;5087361;28;19943;-80
2021/11/27 12:26:15;;;;;;;;;;;4.70;99.90;;;;;;5082146;28;19924;-80
2021/11/27 12:28:43;;;;;;;;;;;4.90;99.90;;;;;;5081531;28;19924;-81
2021/11/27 12:31:11;;;;;;;;;;;4.70;99.90;;;;;;5081055;28;20337;-80
2021/11/27 12:33:41;;;;;;;;;;;4.70;99.90;;;;;;5106214;22;19928;-81
2021/11/27 12:36:08;;;;;;;;;;;4.70;99.90;;;;;;5083761;28;20007;-80
2021/11/27 12:38:35;;;;;;;;;;;4.50;99.90;;;;;;5085321;28;19979;-82
2021/11/27 12:41:01;;;;;;;;;;;4.60;99.90;;;;;;5084600;28;20455;-81
2021/11/27 12:43:28;;;;;;;;;;;4.60;99.90;;;;;;5084345;28;19932;-80
2021/11/27 12:45:57;;;;;;;;;;;4.60;99.90;;;;;;5084553;28;19929;-82
2021/11/27 12:48:37;;;;;;;;;;;4.60;99.90;;;;;;5084665;28;19937;-82
2021/11/27 12:51:19;;;;;;;;;;;4.50;99.90;;;;;;5085084;28;19924;-80
2021/11/27 12:54:00;;;;;;;;;;;4.30;99.90;;;;;;5086102;28;20003;-79
2021/11/27 12:56:27;;;;;;;;;;;4.30;99.90;;;;;;5084864;28;19924;-80
2021/11/27 12:58:55;;;;;;;;;;;4.20;99.90;;;;;;5082912;28;19929;-81
2021/11/27 13:01:27;;;;;;;;;;;4.10;99.90;;;;;;5082643;28;19925;-82
2021/11/27 13:03:54;;;;;;;;;;;4.10;99.90;;;;;;5082949;28;19978;-81
2021/11/27 13:06:21;;;;;;;;;;;4.00;99.90;;;;;;5082848;28;19936;-81
2021/11/27 13:08:48;;;;;;;;;;;4.10;99.90;;;;;;5082875;28;19972;-83
2021/11/27 13:11:17;;;;;;;;;;;4.10;99.90;;;;;;5083866;28;19972;-82
2021/11/27 13:13:46;;;;;;;;;;;4.10;99.90;;;;;;5083855;28;20019;-80
2021/11/27 13:16:15;;;;;;;;;;;4.00;99.90;;;;;;5085061;28;19987;-82
2021/11/27 13:18:48;;;;;;;;;;;3.90;99.90;;;;;;5082556;28;19924;-81
2021/11/27 13:21:15;;;;;;;;;;;3.90;99.90;;;;;;5082992;28;20015;-81
2021/11/27 13:23:42;;;;;;;;;;;4.00;99.90;;;;;;5081117;28;20354;-80
2021/11/27 13:26:10;;;;;;;;;;;3.80;99.90;;;;;;5081778;28;19924;-83
2021/11/27 13:28:37;;;;;;;;;;;3.80;99.90;;;;;;5090438;28;19925;-80
2021/11/27 13:31:05;;;;;;;;;;;3.90;99.90;;;;;;5091627;28;19968;-82
2021/11/27 13:33:54;;;;;;;;;;;3.90;99.90;;;;;;5092221;28;19925;-80
2021/11/27 13:36:25;;;;;;;;;;;3.80;99.90;;;;;;5091852;28;19924;-79
2021/11/27 13:38:53;;;;;;;;;;;3.80;99.90;;;;;;5086809;28;20027;-81
2021/11/27 13:41:20;;;;;;;;;;;3.70;99.90;;;;;;5084202;28;19924;-81
2021/11/27 13:43:46;;;;;;;;;;;3.70;99.90;;;;;;5084792;28;19983;-80
2021/11/27 13:46:13;;;;;;;;;;;3.70;99.90;;;;;;5084462;28;20023;-82
2021/11/27 13:48:39;;;;;;;;;;;3.70;99.90;;;;;;5081850;28;19924;-83
2021/11/27 13:51:07;;;;;;;;;;;3.60;99.90;;;;;;5085869;28;19983;-80
2021/11/27 13:53:34;;;;;;;;;;;3.60;99.90;;;;;;5091589;28;19924;-80
2021/11/27 13:56:03;;;;;;;;;;;3.60;99.90;;;;;;5091267;28;19987;-79
2021/11/27 13:58:30;;;;;;;;;;;3.60;99.90;;;;;;5092841;28;20023;-78
2021/11/27 14:00:57;;;;;;;;;;;3.60;99.90;;;;;;5092841;28;19972;-80
2021/11/27 14:03:30;;;;;;;;;;;3.60;99.90;;;;;;5092082;28;19924;-82
2021/11/27 14:05:56;;;;;;;;;;;3.60;99.90;;;;;;5091460;28;19955;-82
2021/11/27 14:08:26;;;;;;;;;;;3.50;99.90;;;;;;5089071;28;19992;-79
2021/11/27 14:10:59;;;;;;;;;;;3.50;99.90;;;;;;5090607;28;19931;-82
2021/11/27 14:13:26;;;;;;;;;;;3.50;99.90;;;;;;5092288;28;19959;-82
2021/11/27 14:15:53;;;;;;;;;;;3.50;99.90;;;;;;5093233;28;19983;-80
2021/11/27 14:18:22;;;;;;;;;;;3.50;99.90;;;;;;5091568;28;19928;-82
2021/11/27 14:20:50;;;;;;;;;;;3.50;99.90;;;;;;5089851;28;19931;-80
2021/11/27 14:23:17;;;;;;;;;;;3.40;99.90;;;;;;5087486;28;19971;-82
2021/11/27 14:25:59;;;;;;;;;;;3.40;99.90;;;;;;5086784;28;19924;-81
2021/11/27 14:28:26;;;;;;;;;;;3.40;99.90;;;;;;5086704;28;19950;-82
2021/11/27 14:30:53;;;;;;;;;;;3.40;99.90;;;;;;5085145;28;19925;-83
2021/11/27 14:33:22;;;;;;;;;;;3.30;99.90;;;;;;5083025;28;20023;-82
2021/11/27 14:35:56;;;;;;;;;;;3.30;99.90;;;;;;5084363;28;19956;-82